Search for airport 
image banner adimage banner adimage banner ad
image banner ad

PA02 - Dillen Personal

Located in Mc Kean, United States

ICAO - PA02, IATA -

Data provided by Airmate  

General information

Coordinates: N41°59'0" W80°10'59"
Elevation is 1028 feet MSL.
Magnetic variation is -08° East
View others Airports in Pennsylvania

Operational data

Special qualification required
Current time UTC:
Current local time:
Weather at : KERI - Erie Intl/Tom Ridge Field ( 11 km )
METAR: KERI 182151Z 01006KT 10SM CLR 23/05 A3030 RMK AO2 SLP257 T02280050
TAF: KERI 181730Z 1818/1918 35006KT P6SM SKC FM182200 05005KT P6SM SKC FM190400 14005KT P6SM SKC FM191400 VRB04KT P6SM SCT200
View NOTAMs / SUP AIP / TFR affecting this airport [VIEW]
Communications frequencies: [VIEW]

Runways:

RWY identifierQFULength (ft)Width (ft)SurfaceLDA (ft)
101345104GRASS
281345104GRASS

Airport contact information

Address: Mc Kean United States

Satellite view of PA02